sensor_id;sensor_type;location;lat;lon;timestamp;temperature;humidity
20690;DHT22;10504;48.762;8.996;2024-02-16T00:01:01;9.20;99.90
20690;DHT22;10504;48.762;8.996;2024-02-16T00:03:27;9.20;99.90
20690;DHT22;10504;48.762;8.996;2024-02-16T00:05:53;9.20;99.90
20690;DHT22;10504;48.762;8.996;2024-02-16T00:08:19;9.10;99.90
20690;DHT22;10504;48.762;8.996;2024-02-16T00:10:48;9.20;99.90
20690;DHT22;10504;48.762;8.996;2024-02-16T00:13:14;9.10;99.90
20690;DHT22;10504;48.762;8.996;2024-02-16T00:15:39;9.10;99.90
20690;DHT22;10504;48.762;8.996;2024-02-16T00:18:08;9.10;99.90
20690;DHT22;10504;48.762;8.996;2024-02-16T00:20:33;9.10;99.90
20690;DHT22;10504;48.762;8.996;2024-02-16T00:22:59;9.10;99.90
20690;DHT22;10504;48.762;8.996;2024-02-16T00:25:27;9.10;99.90
20690;DHT22;10504;48.762;8.996;2024-02-16T00:27:53;9.10;99.90
20690;DHT22;10504;48.762;8.996;2024-02-16T00:30:19;9.00;99.90
20690;DHT22;10504;48.762;8.996;2024-02-16T00:32:45;9.10;99.90
20690;DHT22;10504;48.762;8.996;2024-02-16T00:35:11;9.10;99.90
20690;DHT22;10504;48.762;8.996;2024-02-16T00:37:37;9.00;99.90
20690;DHT22;10504;48.762;8.996;2024-02-16T00:40:04;9.00;99.90
20690;DHT22;10504;48.762;8.996;2024-02-16T00:42:31;9.00;99.90
20690;DHT22;10504;48.762;8.996;2024-02-16T00:44:57;9.00;99.90
20690;DHT22;10504;48.762;8.996;2024-02-16T00:47:25;9.00;99.90
20690;DHT22;10504;48.762;8.996;2024-02-16T00:49:52;9.00;99.90
20690;DHT22;10504;48.762;8.996;2024-02-16T00:52:18;9.00;99.90
20690;DHT22;10504;48.762;8.996;2024-02-16T00:54:43;9.00;99.90
20690;DHT22;10504;48.762;8.996;2024-02-16T00:57:09;9.00;99.90
20690;DHT22;10504;48.762;8.996;2024-02-16T00:59:35;9.00;99.90
20690;DHT22;10504;48.762;8.996;2024-02-16T01:02:00;9.00;99.90
20690;DHT22;10504;48.762;8.996;2024-02-16T01:04:26;9.00;99.90
20690;DHT22;10504;48.762;8.996;2024-02-16T01:06:51;9.10;99.90
20690;DHT22;10504;48.762;8.996;2024-02-16T01:09:17;9.10;99.90
20690;DHT22;10504;48.762;8.996;2024-02-16T01:11:43;9.10;99.90
20690;DHT22;10504;48.762;8.996;2024-02-16T01:14:08;9.20;99.90
20690;DHT22;10504;48.762;8.996;2024-02-16T01:16:34;9.20;99.90
20690;DHT22;10504;48.762;8.996;2024-02-16T01:19:01;9.30;99.90
20690;DHT22;10504;48.762;8.996;2024-02-16T01:21:26;9.30;99.90
20690;DHT22;10504;48.762;8.996;2024-02-16T01:23:52;9.40;99.90
20690;DHT22;10504;48.762;8.996;2024-02-16T01:26:18;9.40;99.90
20690;DHT22;10504;48.762;8.996;2024-02-16T01:28:44;9.50;99.90
20690;DHT22;10504;48.762;8.996;2024-02-16T01:31:10;9.50;99.90
20690;DHT22;10504;48.762;8.996;2024-02-16T01:33:36;9.60;99.90
20690;DHT22;10504;48.762;8.996;2024-02-16T01:36:03;9.60;99.90
20690;DHT22;10504;48.762;8.996;2024-02-16T01:38:28;9.60;99.90
20690;DHT22;10504;48.762;8.996;2024-02-16T01:40:54;9.60;99.90
20690;DHT22;10504;48.762;8.996;2024-02-16T01:43:20;9.60;99.90
20690;DHT22;10504;48.762;8.996;2024-02-16T01:45:46;9.60;99.90
20690;DHT22;10504;48.762;8.996;2024-02-16T01:48:16;9.60;99.90
20690;DHT22;10504;48.762;8.996;2024-02-16T01:50:45;9.60;99.90
20690;DHT22;10504;48.762;8.996;2024-02-16T01:53:15;9.50;99.90
20690;DHT22;10504;48.762;8.996;2024-02-16T01:55:45;9.50;99.90
20690;DHT22;10504;48.762;8.996;2024-02-16T01:58:11;9.50;99.90
20690;DHT22;10504;48.762;8.996;2024-02-16T02:00:37;9.50;99.90
20690;DHT22;10504;48.762;8.996;2024-02-16T02:03:03;9.40;99.90
20690;DHT22;10504;48.762;8.996;2024-02-16T02:05:29;9.40;99.90
20690;DHT22;10504;48.762;8.996;2024-02-16T02:07:54;9.40;99.90
20690;DHT22;10504;48.762;8.996;2024-02-16T02:10:20;9.30;99.90
20690;DHT22;10504;48.762;8.996;2024-02-16T02:12:46;9.30;99.90
20690;DHT22;10504;48.762;8.996;2024-02-16T02:15:11;9.30;99.90
20690;DHT22;10504;48.762;8.996;2024-02-16T02:17:37;9.30;99.90
20690;DHT22;10504;48.762;8.996;2024-02-16T02:20:04;9.30;99.90
20690;DHT22;10504;48.762;8.996;2024-02-16T02:22:33;9.30;99.90
20690;DHT22;10504;48.762;8.996;2024-02-16T02:24:58;9.30;99.90
20690;DHT22;10504;48.762;8.996;2024-02-16T02:27:25;9.30;99.90
20690;DHT22;10504;48.762;8.996;2024-02-16T02:29:50;9.30;99.90
20690;DHT22;10504;48.762;8.996;2024-02-16T02:32:16;9.30;99.90
20690;DHT22;10504;48.762;8.996;2024-02-16T02:34:42;9.30;99.90
20690;DHT22;10504;48.762;8.996;2024-02-16T02:37:08;9.30;99.90
20690;DHT22;10504;48.762;8.996;2024-02-16T02:39:34;9.30;99.90
20690;DHT22;10504;48.762;8.996;2024-02-16T02:42:00;9.30;99.90
20690;DHT22;10504;48.762;8.996;2024-02-16T02:44:25;9.30;99.90
20690;DHT22;10504;48.762;8.996;2024-02-16T02:46:51;9.30;99.90
20690;DHT22;10504;48.762;8.996;2024-02-16T02:49:17;9.30;99.90
20690;DHT22;10504;48.762;8.996;2024-02-16T02:51:43;9.30;99.90
20690;DHT22;10504;48.762;8.996;2024-02-16T02:54:09;9.40;99.90
20690;DHT22;10504;48.762;8.996;2024-02-16T02:56:34;9.40;99.90
20690;DHT22;10504;48.762;8.996;2024-02-16T02:59:00;9.40;99.90
20690;DHT22;10504;48.762;8.996;2024-02-16T03:01:26;9.40;99.90
20690;DHT22;10504;48.762;8.996;2024-02-16T03:03:52;9.40;99.90
20690;DHT22;10504;48.762;8.996;2024-02-16T03:06:20;9.40;99.90
20690;DHT22;10504;48.762;8.996;2024-02-16T03:08:46;9.40;99.90
20690;DHT22;10504;48.762;8.996;2024-02-16T03:11:12;9.40;99.90
20690;DHT22;10504;48.762;8.996;2024-02-16T03:13:37;9.50;99.90
20690;DHT22;10504;48.762;8.996;2024-02-16T03:16:03;9.50;99.90
20690;DHT22;10504;48.762;8.996;2024-02-16T03:18:30;9.40;99.90
20690;DHT22;10504;48.762;8.996;2024-02-16T03:20:56;9.40;99.90
20690;DHT22;10504;48.762;8.996;2024-02-16T03:23:23;9.40;99.90
20690;DHT22;10504;48.762;8.996;2024-02-16T03:25:48;9.40;99.90
20690;DHT22;10504;48.762;8.996;2024-02-16T03:28:14;9.40;99.90
20690;DHT22;10504;48.762;8.996;2024-02-16T03:30:41;9.40;99.90
20690;DHT22;10504;48.762;8.996;2024-02-16T03:33:08;9.40;99.90
20690;DHT22;10504;48.762;8.996;2024-02-16T03:35:33;9.40;99.90
20690;DHT22;10504;48.762;8.996;2024-02-16T03:37:59;9.50;99.90
20690;DHT22;10504;48.762;8.996;2024-02-16T03:40:25;9.50;99.90
20690;DHT22;10504;48.762;8.996;2024-02-16T03:42:51;9.50;99.90
20690;DHT22;10504;48.762;8.996;2024-02-16T03:45:17;9.50;99.90
20690;DHT22;10504;48.762;8.996;2024-02-16T03:47:43;9.40;99.90
20690;DHT22;10504;48.762;8.996;2024-02-16T03:50:10;9.40;99.90
20690;DHT22;10504;48.762;8.996;2024-02-16T03:52:36;9.40;99.90
20690;DHT22;10504;48.762;8.996;2024-02-16T03:55:02;9.40;99.90
20690;DHT22;10504;48.762;8.996;2024-02-16T03:57:27;9.40;99.90
20690;DHT22;10504;48.762;8.996;2024-02-16T03:59:53;9.30;99.90
20690;DHT22;10504;48.762;8.996;2024-02-16T04:02:19;9.30;99.90
20690;DHT22;10504;48.762;8.996;2024-02-16T04:04:45;9.40;99.90
20690;DHT22;10504;48.762;8.996;2024-02-16T04:07:11;9.30;99.90
20690;DHT22;10504;48.762;8.996;2024-02-16T04:09:37;9.30;99.90
20690;DHT22;10504;48.762;8.996;2024-02-16T04:12:03;9.30;99.90
20690;DHT22;10504;48.762;8.996;2024-02-16T04:14:32;9.30;99.90
20690;DHT22;10504;48.762;8.996;2024-02-16T04:16:59;9.30;99.90
20690;DHT22;10504;48.762;8.996;2024-02-16T04:19:28;9.30;99.90
20690;DHT22;10504;48.762;8.996;2024-02-16T04:21:54;9.30;99.90
20690;DHT22;10504;48.762;8.996;2024-02-16T04:24:20;9.30;99.90
20690;DHT22;10504;48.762;8.996;2024-02-16T04:26:46;9.30;99.90
20690;DHT22;10504;48.762;8.996;2024-02-16T04:29:11;9.30;99.90
20690;DHT22;10504;48.762;8.996;2024-02-16T04:31:41;9.30;99.90
20690;DHT22;10504;48.762;8.996;2024-02-16T04:34:08;9.30;99.90
20690;DHT22;10504;48.762;8.996;2024-02-16T04:36:34;9.30;99.90
20690;DHT22;10504;48.762;8.996;2024-02-16T04:39:00;9.30;99.90
20690;DHT22;10504;48.762;8.996;2024-02-16T04:41:26;9.30;99.90
20690;DHT22;10504;48.762;8.996;2024-02-16T04:43:52;9.30;99.90
20690;DHT22;10504;48.762;8.996;2024-02-16T04:46:18;9.20;99.90
20690;DHT22;10504;48.762;8.996;2024-02-16T04:48:44;9.20;99.90
20690;DHT22;10504;48.762;8.996;2024-02-16T04:51:11;9.20;99.90
20690;DHT22;10504;48.762;8.996;2024-02-16T04:53:36;9.20;99.90
20690;DHT22;10504;48.762;8.996;2024-02-16T04:56:02;9.10;99.90
20690;DHT22;10504;48.762;8.996;2024-02-16T04:58:28;9.10;99.90
20690;DHT22;10504;48.762;8.996;2024-02-16T05:00:54;9.10;99.90
20690;DHT22;10504;48.762;8.996;2024-02-16T05:03:19;9.00;99.90
20690;DHT22;10504;48.762;8.996;2024-02-16T05:05:45;9.00;99.90
20690;DHT22;10504;48.762;8.996;2024-02-16T05:08:11;9.00;99.90
20690;DHT22;10504;48.762;8.996;2024-02-16T05:10:37;9.10;99.90
20690;DHT22;10504;48.762;8.996;2024-02-16T05:13:03;9.10;99.90
20690;DHT22;10504;48.762;8.996;2024-02-16T05:15:29;9.10;99.90
20690;DHT22;10504;48.762;8.996;2024-02-16T05:17:54;9.10;99.90
20690;DHT22;10504;48.762;8.996;2024-02-16T05:20:20;9.00;99.90
20690;DHT22;10504;48.762;8.996;2024-02-16T05:22:46;9.00;99.90
20690;DHT22;10504;48.762;8.996;2024-02-16T05:25:13;9.00;99.90
20690;DHT22;10504;48.762;8.996;2024-02-16T05:27:39;9.00;99.90
20690;DHT22;10504;48.762;8.996;2024-02-16T05:30:05;9.00;99.90
20690;DHT22;10504;48.762;8.996;2024-02-16T05:32:36;9.00;99.90
20690;DHT22;10504;48.762;8.996;2024-02-16T05:35:03;9.00;99.90
20690;DHT22;10504;48.762;8.996;2024-02-16T05:37:42;9.00;99.90
20690;DHT22;10504;48.762;8.996;2024-02-16T05:40:10;8.90;99.90
20690;DHT22;10504;48.762;8.996;2024-02-16T05:43:05;8.90;99.90
20690;DHT22;10504;48.762;8.996;2024-02-16T05:45:31;8.90;99.90
20690;DHT22;10504;48.762;8.996;2024-02-16T05:47:56;8.90;99.90
20690;DHT22;10504;48.762;8.996;2024-02-16T05:50:23;8.90;99.90
20690;DHT22;10504;48.762;8.996;2024-02-16T05:52:48;8.90;99.90
20690;DHT22;10504;48.762;8.996;2024-02-16T05:55:15;8.80;99.90
20690;DHT22;10504;48.762;8.996;2024-02-16T05:57:41;8.80;99.90
20690;DHT22;10504;48.762;8.996;2024-02-16T06:00:07;8.90;99.90
20690;DHT22;10504;48.762;8.996;2024-02-16T06:02:38;8.90;99.90
20690;DHT22;10504;48.762;8.996;2024-02-16T06:05:04;8.90;99.90
20690;DHT22;10504;48.762;8.996;2024-02-16T06:07:30;8.90;99.90
20690;DHT22;10504;48.762;8.996;2024-02-16T06:09:56;8.90;99.90
20690;DHT22;10504;48.762;8.996;2024-02-16T06:12:23;8.90;99.90
20690;DHT22;10504;48.762;8.996;2024-02-16T06:14:49;8.90;99.90
20690;DHT22;10504;48.762;8.996;2024-02-16T06:17:15;8.90;99.90
20690;DHT22;10504;48.762;8.996;2024-02-16T06:19:41;8.80;99.90
20690;DHT22;10504;48.762;8.996;2024-02-16T06:22:07;8.80;99.90
20690;DHT22;10504;48.762;8.996;2024-02-16T06:24:34;8.80;99.90
20690;DHT22;10504;48.762;8.996;2024-02-16T06:26:59;8.80;99.90
20690;DHT22;10504;48.762;8.996;2024-02-16T06:29:25;8.70;99.90
20690;DHT22;10504;48.762;8.996;2024-02-16T06:31:51;8.80;99.90
20690;DHT22;10504;48.762;8.996;2024-02-16T06:34:18;8.70;99.90
20690;DHT22;10504;48.762;8.996;2024-02-16T06:36:44;8.80;99.90
20690;DHT22;10504;48.762;8.996;2024-02-16T06:39:11;8.70;99.90
20690;DHT22;10504;48.762;8.996;2024-02-16T06:41:37;8.70;99.90
20690;DHT22;10504;48.762;8.996;2024-02-16T06:44:04;8.70;99.90
20690;DHT22;10504;48.762;8.996;2024-02-16T06:46:29;8.70;99.90
20690;DHT22;10504;48.762;8.996;2024-02-16T06:48:55;8.70;99.90
20690;DHT22;10504;48.762;8.996;2024-02-16T06:51:24;8.70;99.90
20690;DHT22;10504;48.762;8.996;2024-02-16T06:53:52;8.70;99.90
20690;DHT22;10504;48.762;8.996;2024-02-16T06:56:18;8.70;99.90
20690;DHT22;10504;48.762;8.996;2024-02-16T06:58:47;8.70;99.90
20690;DHT22;10504;48.762;8.996;2024-02-16T07:01:16;8.70;99.90
20690;DHT22;10504;48.762;8.996;2024-02-16T07:03:43;8.70;99.90
20690;DHT22;10504;48.762;8.996;2024-02-16T07:06:09;8.70;99.90
20690;DHT22;10504;48.762;8.996;2024-02-16T07:08:41;8.70;99.90
20690;DHT22;10504;48.762;8.996;2024-02-16T07:11:06;8.70;99.90
20690;DHT22;10504;48.762;8.996;2024-02-16T07:13:34;8.70;99.90
20690;DHT22;10504;48.762;8.996;2024-02-16T07:15:59;8.70;99.90
20690;DHT22;10504;48.762;8.996;2024-02-16T07:18:25;8.70;99.90
20690;DHT22;10504;48.762;8.996;2024-02-16T07:20:51;8.60;99.90
20690;DHT22;10504;48.762;8.996;2024-02-16T07:23:16;8.60;99.90
20690;DHT22;10504;48.762;8.996;2024-02-16T07:25:43;8.70;99.90
20690;DHT22;10504;48.762;8.996;2024-02-16T07:28:08;8.70;99.90
20690;DHT22;10504;48.762;8.996;2024-02-16T07:30:35;8.70;99.90
20690;DHT22;10504;48.762;8.996;2024-02-16T07:33:04;8.70;99.90
20690;DHT22;10504;48.762;8.996;2024-02-16T07:35:30;8.70;99.90
20690;DHT22;10504;48.762;8.996;2024-02-16T07:37:56;8.70;99.90
20690;DHT22;10504;48.762;8.996;2024-02-16T07:40:21;8.80;99.90
20690;DHT22;10504;48.762;8.996;2024-02-16T07:42:47;8.80;99.90
20690;DHT22;10504;48.762;8.996;2024-02-16T07:45:13;8.80;99.90
20690;DHT22;10504;48.762;8.996;2024-02-16T07:47:42;8.80;99.90
20690;DHT22;10504;48.762;8.996;2024-02-16T07:50:08;8.90;99.90
20690;DHT22;10504;48.762;8.996;2024-02-16T07:52:34;8.90;99.90
20690;DHT22;10504;48.762;8.996;2024-02-16T07:55:00;8.90;99.90
20690;DHT22;10504;48.762;8.996;2024-02-16T07:57:26;8.90;99.90
20690;DHT22;10504;48.762;8.996;2024-02-16T07:59:52;8.90;99.90
20690;DHT22;10504;48.762;8.996;2024-02-16T08:02:18;9.00;99.90
20690;DHT22;10504;48.762;8.996;2024-02-16T08:04:49;9.00;99.90
20690;DHT22;10504;48.762;8.996;2024-02-16T08:07:15;9.00;99.90
20690;DHT22;10504;48.762;8.996;2024-02-16T08:09:47;9.10;99.90
20690;DHT22;10504;48.762;8.996;2024-02-16T08:12:13;9.10;99.90
20690;DHT22;10504;48.762;8.996;2024-02-16T08:14:39;9.20;99.90
20690;DHT22;10504;48.762;8.996;2024-02-16T08:17:08;9.20;99.90
20690;DHT22;10504;48.762;8.996;2024-02-16T08:19:37;9.30;99.90
20690;DHT22;10504;48.762;8.996;2024-02-16T08:22:04;9.30;99.90
20690;DHT22;10504;48.762;8.996;2024-02-16T08:24:34;9.40;99.90
20690;DHT22;10504;48.762;8.996;2024-02-16T08:27:00;9.40;99.90
20690;DHT22;10504;48.762;8.996;2024-02-16T08:29:26;9.40;99.90
20690;DHT22;10504;48.762;8.996;2024-02-16T08:31:52;9.40;99.90
20690;DHT22;10504;48.762;8.996;2024-02-16T08:34:18;9.50;99.90
20690;DHT22;10504;48.762;8.996;2024-02-16T08:36:45;9.50;99.90
20690;DHT22;10504;48.762;8.996;2024-02-16T08:39:11;9.50;99.90
20690;DHT22;10504;48.762;8.996;2024-02-16T08:41:37;9.60;99.90
20690;DHT22;10504;48.762;8.996;2024-02-16T08:44:03;9.60;99.90
20690;DHT22;10504;48.762;8.996;2024-02-16T08:46:29;9.70;99.90
20690;DHT22;10504;48.762;8.996;2024-02-16T08:48:55;9.70;99.90
20690;DHT22;10504;48.762;8.996;2024-02-16T08:51:20;9.80;99.90
20690;DHT22;10504;48.762;8.996;2024-02-16T08:53:46;9.80;99.90
20690;DHT22;10504;48.762;8.996;2024-02-16T08:56:12;9.90;99.90
20690;DHT22;10504;48.762;8.996;2024-02-16T08:58:38;9.90;99.90
20690;DHT22;10504;48.762;8.996;2024-02-16T09:01:05;10.00;99.90
20690;DHT22;10504;48.762;8.996;2024-02-16T09:03:30;10.00;99.90
20690;DHT22;10504;48.762;8.996;2024-02-16T09:06:02;10.10;99.90
20690;DHT22;10504;48.762;8.996;2024-02-16T09:08:28;10.10;99.90
20690;DHT22;10504;48.762;8.996;2024-02-16T09:10:59;10.20;99.90
20690;DHT22;10504;48.762;8.996;2024-02-16T09:13:24;10.20;99.90
20690;DHT22;10504;48.762;8.996;2024-02-16T09:15:50;10.30;99.90
20690;DHT22;10504;48.762;8.996;2024-02-16T09:18:17;10.30;99.90
20690;DHT22;10504;48.762;8.996;2024-02-16T09:20:43;10.40;99.90
20690;DHT22;10504;48.762;8.996;2024-02-16T09:23:08;10.40;99.90
20690;DHT22;10504;48.762;8.996;2024-02-16T09:25:34;10.50;99.90
20690;DHT22;10504;48.762;8.996;2024-02-16T09:28:00;10.50;99.90
20690;DHT22;10504;48.762;8.996;2024-02-16T09:30:26;10.50;99.90
20690;DHT22;10504;48.762;8.996;2024-02-16T09:32:53;10.50;99.90
20690;DHT22;10504;48.762;8.996;2024-02-16T09:35:18;10.60;99.90
20690;DHT22;10504;48.762;8.996;2024-02-16T09:37:44;10.60;99.90
20690;DHT22;10504;48.762;8.996;2024-02-16T09:40:12;10.60;99.90
20690;DHT22;10504;48.762;8.996;2024-02-16T09:42:38;10.60;99.90
20690;DHT22;10504;48.762;8.996;2024-02-16T09:45:06;10.60;99.90
20690;DHT22;10504;48.762;8.996;2024-02-16T09:47:32;10.60;99.90
20690;DHT22;10504;48.762;8.996;2024-02-16T09:50:00;10.70;99.90
20690;DHT22;10504;48.762;8.996;2024-02-16T09:52:26;10.70;99.90
20690;DHT22;10504;48.762;8.996;2024-02-16T09:54:52;10.80;99.90
20690;DHT22;10504;48.762;8.996;2024-02-16T09:57:18;10.90;99.90
20690;DHT22;10504;48.762;8.996;2024-02-16T09:59:43;11.00;99.90
20690;DHT22;10504;48.762;8.996;2024-02-16T10:02:09;11.00;99.90
20690;DHT22;10504;48.762;8.996;2024-02-16T10:04:36;11.10;99.90
20690;DHT22;10504;48.762;8.996;2024-02-16T10:07:01;11.30;99.90
20690;DHT22;10504;48.762;8.996;2024-02-16T10:09:28;11.40;99.90
20690;DHT22;10504;48.762;8.996;2024-02-16T10:12:00;11.50;99.90
20690;DHT22;10504;48.762;8.996;2024-02-16T10:14:26;11.50;99.90
20690;DHT22;10504;48.762;8.996;2024-02-16T10:17:02;11.50;99.90
20690;DHT22;10504;48.762;8.996;2024-02-16T10:19:29;11.60;99.90
20690;DHT22;10504;48.762;8.996;2024-02-16T10:22:12;11.60;99.90
20690;DHT22;10504;48.762;8.996;2024-02-16T10:24:38;11.70;99.90
20690;DHT22;10504;48.762;8.996;2024-02-16T10:27:17;11.70;99.90
20690;DHT22;10504;48.762;8.996;2024-02-16T10:29:47;11.80;99.90
20690;DHT22;10504;48.762;8.996;2024-02-16T10:32:16;11.80;99.90
20690;DHT22;10504;48.762;8.996;2024-02-16T10:34:43;11.80;99.90
20690;DHT22;10504;48.762;8.996;2024-02-16T10:37:12;11.90;99.90
20690;DHT22;10504;48.762;8.996;2024-02-16T10:39:39;11.90;99.90
20690;DHT22;10504;48.762;8.996;2024-02-16T10:42:06;12.00;99.90
20690;DHT22;10504;48.762;8.996;2024-02-16T10:44:34;12.00;99.90
20690;DHT22;10504;48.762;8.996;2024-02-16T10:47:01;12.00;99.90
20690;DHT22;10504;48.762;8.996;2024-02-16T10:49:26;12.10;99.90
20690;DHT22;10504;48.762;8.996;2024-02-16T10:51:55;12.10;99.90
20690;DHT22;10504;48.762;8.996;2024-02-16T10:54:25;12.10;99.90
20690;DHT22;10504;48.762;8.996;2024-02-16T10:56:54;12.10;99.90
20690;DHT22;10504;48.762;8.996;2024-02-16T10:59:20;12.10;99.90
20690;DHT22;10504;48.762;8.996;2024-02-16T11:01:46;12.20;99.90
20690;DHT22;10504;48.762;8.996;2024-02-16T11:04:15;12.20;99.90
20690;DHT22;10504;48.762;8.996;2024-02-16T11:06:59;12.20;99.90
20690;DHT22;10504;48.762;8.996;2024-02-16T11:09:28;12.30;99.90
20690;DHT22;10504;48.762;8.996;2024-02-16T11:11:58;12.30;99.90
20690;DHT22;10504;48.762;8.996;2024-02-16T11:14:24;12.30;99.90
20690;DHT22;10504;48.762;8.996;2024-02-16T11:16:53;12.30;99.90
20690;DHT22;10504;48.762;8.996;2024-02-16T11:19:21;12.30;99.90
20690;DHT22;10504;48.762;8.996;2024-02-16T11:22:02;12.40;99.90
20690;DHT22;10504;48.762;8.996;2024-02-16T11:24:33;12.40;99.90
20690;DHT22;10504;48.762;8.996;2024-02-16T11:27:01;12.40;99.90
20690;DHT22;10504;48.762;8.996;2024-02-16T11:29:31;12.50;99.90
20690;DHT22;10504;48.762;8.996;2024-02-16T11:31:57;12.50;99.90
20690;DHT22;10504;48.762;8.996;2024-02-16T11:34:24;12.50;99.90
20690;DHT22;10504;48.762;8.996;2024-02-16T11:36:58;12.50;99.90
20690;DHT22;10504;48.762;8.996;2024-02-16T11:39:25;12.50;99.90
20690;DHT22;10504;48.762;8.996;2024-02-16T11:42:05;12.50;99.90
20690;DHT22;10504;48.762;8.996;2024-02-16T11:44:32;12.50;99.90
20690;DHT22;10504;48.762;8.996;2024-02-16T11:46:59;12.50;99.90
20690;DHT22;10504;48.762;8.996;2024-02-16T11:49:25;12.50;99.90
20690;DHT22;10504;48.762;8.996;2024-02-16T11:51:51;12.60;99.90
20690;DHT22;10504;48.762;8.996;2024-02-16T11:54:17;12.60;99.90
20690;DHT22;10504;48.762;8.996;2024-02-16T11:56:44;12.60;99.90
20690;DHT22;10504;48.762;8.996;2024-02-16T11:59:15;12.60;99.90
20690;DHT22;10504;48.762;8.996;2024-02-16T12:01:58;12.60;99.90
20690;DHT22;10504;48.762;8.996;2024-02-16T12:04:27;12.60;99.90
20690;DHT22;10504;48.762;8.996;2024-02-16T12:06:58;12.60;99.90
20690;DHT22;10504;48.762;8.996;2024-02-16T12:09:24;12.70;99.90
20690;DHT22;10504;48.762;8.996;2024-02-16T12:11:52;12.80;99.90
20690;DHT22;10504;48.762;8.996;2024-02-16T12:14:19;12.80;99.90
20690;DHT22;10504;48.762;8.996;2024-02-16T12:16:48;12.90;99.90
20690;DHT22;10504;48.762;8.996;2024-02-16T12:19:15;12.90;99.90
20690;DHT22;10504;48.762;8.996;2024-02-16T12:21:41;12.90;99.90
20690;DHT22;10504;48.762;8.996;2024-02-16T12:24:07;12.90;99.90
20690;DHT22;10504;48.762;8.996;2024-02-16T12:26:33;13.00;99.90
20690;DHT22;10504;48.762;8.996;2024-02-16T12:28:58;13.00;99.90
20690;DHT22;10504;48.762;8.996;2024-02-16T12:31:24;13.00;99.90
20690;DHT22;10504;48.762;8.996;2024-02-16T12:33:51;13.00;99.90
20690;DHT22;10504;48.762;8.996;2024-02-16T12:36:17;13.00;99.90
20690;DHT22;10504;48.762;8.996;2024-02-16T12:38:43;13.00;99.90
20690;DHT22;10504;48.762;8.996;2024-02-16T12:41:09;13.10;99.90
20690;DHT22;10504;48.762;8.996;2024-02-16T12:43:34;13.10;99.90
20690;DHT22;10504;48.762;8.996;2024-02-16T12:46:00;13.10;99.90
20690;DHT22;10504;48.762;8.996;2024-02-16T12:48:28;13.10;99.90
20690;DHT22;10504;48.762;8.996;2024-02-16T12:50:54;13.10;99.90
20690;DHT22;10504;48.762;8.996;2024-02-16T12:53:20;13.10;99.90
20690;DHT22;10504;48.762;8.996;2024-02-16T12:55:46;13.10;99.90
20690;DHT22;10504;48.762;8.996;2024-02-16T12:58:13;13.10;99.90
20690;DHT22;10504;48.762;8.996;2024-02-16T13:00:39;13.20;99.90
20690;DHT22;10504;48.762;8.996;2024-02-16T13:03:04;13.20;99.90
20690;DHT22;10504;48.762;8.996;2024-02-16T13:05:30;13.20;99.90
20690;DHT22;10504;48.762;8.996;2024-02-16T13:07:58;13.20;99.90
20690;DHT22;10504;48.762;8.996;2024-02-16T13:10:24;13.20;99.90
20690;DHT22;10504;48.762;8.996;2024-02-16T13:12:49;13.30;99.90
20690;DHT22;10504;48.762;8.996;2024-02-16T13:15:15;13.30;99.90
20690;DHT22;10504;48.762;8.996;2024-02-16T13:17:41;13.40;99.90
20690;DHT22;10504;48.762;8.996;2024-02-16T13:20:07;13.40;99.90
20690;DHT22;10504;48.762;8.996;2024-02-16T13:22:35;13.40;99.90
20690;DHT22;10504;48.762;8.996;2024-02-16T13:25:04;13.40;99.90
20690;DHT22;10504;48.762;8.996;2024-02-16T13:27:31;13.40;99.90
20690;DHT22;10504;48.762;8.996;2024-02-16T13:29:57;13.40;99.90
20690;DHT22;10504;48.762;8.996;2024-02-16T13:32:23;13.40;99.90
20690;DHT22;10504;48.762;8.996;2024-02-16T13:34:49;13.50;99.90
20690;DHT22;10504;48.762;8.996;2024-02-16T13:37:16;13.50;99.90
20690;DHT22;10504;48.762;8.996;2024-02-16T13:39:41;13.50;99.90
20690;DHT22;10504;48.762;8.996;2024-02-16T13:42:07;13.50;99.90
20690;DHT22;10504;48.762;8.996;2024-02-16T13:44:33;13.50;99.90
20690;DHT22;10504;48.762;8.996;2024-02-16T13:46:58;13.60;99.90
20690;DHT22;10504;48.762;8.996;2024-02-16T13:49:24;13.60;99.90
20690;DHT22;10504;48.762;8.996;2024-02-16T13:51:50;13.60;99.90
20690;DHT22;10504;48.762;8.996;2024-02-16T13:54:15;13.70;99.90
20690;DHT22;10504;48.762;8.996;2024-02-16T13:56:41;13.70;99.90
20690;DHT22;10504;48.762;8.996;2024-02-16T13:59:06;13.70;99.90
20690;DHT22;10504;48.762;8.996;2024-02-16T14:01:33;13.80;99.90
20690;DHT22;10504;48.762;8.996;2024-02-16T14:04:00;13.70;99.90
20690;DHT22;10504;48.762;8.996;2024-02-16T14:06:26;13.80;99.90
20690;DHT22;10504;48.762;8.996;2024-02-16T14:08:51;13.70;99.90
20690;DHT22;10504;48.762;8.996;2024-02-16T14:11:18;13.70;99.90
20690;DHT22;10504;48.762;8.996;2024-02-16T14:13:44;13.80;99.90
20690;DHT22;10504;48.762;8.996;2024-02-16T14:16:10;13.70;99.90
20690;DHT22;10504;48.762;8.996;2024-02-16T14:18:36;13.70;99.90
20690;DHT22;10504;48.762;8.996;2024-02-16T14:21:03;13.70;99.90
20690;DHT22;10504;48.762;8.996;2024-02-16T14:23:32;13.70;99.90
20690;DHT22;10504;48.762;8.996;2024-02-16T14:26:01;13.60;99.90
20690;DHT22;10504;48.762;8.996;2024-02-16T14:28:27;13.60;99.90
20690;DHT22;10504;48.762;8.996;2024-02-16T14:30:52;13.50;99.90
20690;DHT22;10504;48.762;8.996;2024-02-16T14:33:18;13.40;99.90
20690;DHT22;10504;48.762;8.996;2024-02-16T14:35:44;13.40;99.90
20690;DHT22;10504;48.762;8.996;2024-02-16T14:38:11;13.30;99.90
20690;DHT22;10504;48.762;8.996;2024-02-16T14:40:38;13.40;99.90
20690;DHT22;10504;48.762;8.996;2024-02-16T14:43:04;13.30;99.90
20690;DHT22;10504;48.762;8.996;2024-02-16T14:45:30;13.30;99.90
20690;DHT22;10504;48.762;8.996;2024-02-16T14:47:55;13.20;99.90
20690;DHT22;10504;48.762;8.996;2024-02-16T14:50:23;13.20;99.90
20690;DHT22;10504;48.762;8.996;2024-02-16T14:52:49;13.20;99.90
20690;DHT22;10504;48.762;8.996;2024-02-16T14:55:15;13.10;99.90
20690;DHT22;10504;48.762;8.996;2024-02-16T14:57:41;13.10;99.90
20690;DHT22;10504;48.762;8.996;2024-02-16T15:00:08;13.10;99.90
20690;DHT22;10504;48.762;8.996;2024-02-16T15:02:34;13.10;99.90
20690;DHT22;10504;48.762;8.996;2024-02-16T15:04:59;13.00;99.90
20690;DHT22;10504;48.762;8.996;2024-02-16T15:07:25;12.90;99.90
20690;DHT22;10504;48.762;8.996;2024-02-16T15:09:51;12.90;99.90
20690;DHT22;10504;48.762;8.996;2024-02-16T15:12:16;12.90;99.90
20690;DHT22;10504;48.762;8.996;2024-02-16T15:14:47;12.90;99.90
20690;DHT22;10504;48.762;8.996;2024-02-16T15:17:14;12.90;99.90
20690;DHT22;10504;48.762;8.996;2024-02-16T15:19:40;12.90;99.90
20690;DHT22;10504;48.762;8.996;2024-02-16T15:22:06;12.90;99.90
20690;DHT22;10504;48.762;8.996;2024-02-16T15:24:32;12.80;99.90
20690;DHT22;10504;48.762;8.996;2024-02-16T15:26:57;12.80;99.90
20690;DHT22;10504;48.762;8.996;2024-02-16T15:29:23;12.80;99.90
20690;DHT22;10504;48.762;8.996;2024-02-16T15:31:48;12.70;99.90
20690;DHT22;10504;48.762;8.996;2024-02-16T15:34:14;12.70;99.90
20690;DHT22;10504;48.762;8.996;2024-02-16T15:36:40;12.70;99.90